Time;durP1;ratioP1;P1;durP2;ratioP2;P2;SDS_P1;SDS_P2;PMS_P1;PMS_P2;Temp;Humidity;BMP_temperature;BMP_pressure;BME280_temperature;BME280_humidity;BME280_pressure;Samples;Min_cycle;Max_cycle;Signal;HPM_P1;HPM_P2
2024/04/22 00:01:40;;;;;;;1.00;0.47;;;4.90;99.90;;;;;;5528594;26;20465;-75
2024/04/22 00:04:07;;;;;;;1.10;0.40;;;4.90;99.90;;;;;;5528449;25;20456;-76
2024/04/22 00:06:43;;;;;;;1.10;0.70;;;4.90;99.90;;;;;;5528346;26;20506;-76
2024/04/22 00:09:09;;;;;;;0.70;0.50;;;4.90;99.90;;;;;;5529288;25;20710;-76
2024/04/22 00:11:39;;;;;;;1.00;0.53;;;5.00;99.90;;;;;;5529763;26;20440;-75
2024/04/22 00:14:08;;;;;;;1.00;0.40;;;4.90;99.90;;;;;;5529253;26;20737;-76
2024/04/22 00:16:44;;;;;;;1.20;0.60;;;5.00;99.90;;;;;;5529309;25;20531;-76
2024/04/22 00:19:10;;;;;;;0.57;0.40;;;5.00;99.90;;;;;;5529900;26;20464;-75
2024/04/22 00:21:39;;;;;;;1.40;0.40;;;4.90;99.90;;;;;;5530421;26;20456;-75
2024/04/22 00:24:06;;;;;;;0.57;0.40;;;5.00;99.90;;;;;;5532037;25;20811;-75
2024/04/22 00:26:34;;;;;;;4.20;0.57;;;5.00;99.90;;;;;;5532436;25;20493;-75
2024/04/22 00:29:04;;;;;;;0.80;0.57;;;5.00;99.90;;;;;;5532621;26;20554;-75
2024/04/22 00:31:35;;;;;;;1.30;0.50;;;4.90;99.90;;;;;;5532213;26;20735;-75
2024/04/22 00:34:01;;;;;;;1.07;0.60;;;4.90;99.90;;;;;;5531609;26;20452;-76
2024/04/22 00:36:32;;;;;;;2.00;0.60;;;5.00;99.90;;;;;;5532175;25;20437;-75
2024/04/22 00:38:58;;;;;;;1.30;0.60;;;5.00;99.90;;;;;;5534600;25;20896;-75
2024/04/22 00:41:30;;;;;;;0.90;0.50;;;5.10;99.90;;;;;;5537279;25;20460;-74
2024/04/22 00:43:56;;;;;;;2.90;0.57;;;5.10;99.90;;;;;;5538467;25;20445;-75
2024/04/22 00:46:25;;;;;;;0.60;0.40;;;5.10;99.90;;;;;;5538548;25;20529;-75
2024/04/22 00:48:54;;;;;;;0.80;0.53;;;5.20;99.90;;;;;;5536572;25;20460;-75
2024/04/22 00:51:25;;;;;;;1.20;0.50;;;5.10;99.90;;;;;;5534865;26;20850;-75
2024/04/22 00:53:53;;;;;;;1.80;0.40;;;5.10;99.90;;;;;;5531471;26;20504;-74
2024/04/22 00:56:22;;;;;;;0.60;0.40;;;5.00;99.90;;;;;;5530187;26;20774;-75
2024/04/22 00:58:50;;;;;;;0.73;0.47;;;5.10;99.90;;;;;;5532158;26;20508;-75
2024/04/22 01:01:19;;;;;;;0.77;0.60;;;5.20;99.90;;;;;;5531693;26;20578;-75
2024/04/22 01:03:46;;;;;;;1.67;0.50;;;5.20;99.90;;;;;;5529520;25;20520;-76
2024/04/22 01:06:18;;;;;;;1.03;0.50;;;5.10;99.90;;;;;;5532104;26;20515;-75
2024/04/22 01:08:44;;;;;;;0.80;0.53;;;5.10;99.90;;;;;;5531707;26;20486;-75
2024/04/22 01:11:14;;;;;;;1.07;0.60;;;5.00;99.90;;;;;;5531809;26;20460;-75
2024/04/22 01:13:40;;;;;;;0.53;0.30;;;5.10;99.90;;;;;;5531531;26;20515;-76
2024/04/22 01:16:09;;;;;;;1.53;0.53;;;5.10;99.90;;;;;;5530710;26;20519;-76
2024/04/22 01:18:35;;;;;;;0.63;0.40;;;5.10;99.90;;;;;;5529791;26;20456;-76
2024/04/22 01:21:04;;;;;;;1.77;0.50;;;5.10;99.90;;;;;;5530667;25;20917;-75
2024/04/22 01:23:34;;;;;;;0.80;0.50;;;5.10;99.90;;;;;;5529348;26;20612;-75
2024/04/22 01:26:05;;;;;;;0.70;0.40;;;5.10;99.90;;;;;;5529968;26;20969;-75
2024/04/22 01:28:31;;;;;;;0.80;0.50;;;5.00;99.90;;;;;;5530217;26;20448;-75
2024/04/22 01:31:00;;;;;;;1.90;0.50;;;4.90;99.90;;;;;;5530467;26;20485;-75
2024/04/22 01:33:28;;;;;;;0.70;0.40;;;4.80;99.90;;;;;;5531161;26;20504;-76
2024/04/22 01:35:57;;;;;;;1.33;0.60;;;4.70;99.90;;;;;;5531107;26;20472;-76
2024/04/22 01:38:23;;;;;;;1.67;0.50;;;4.70;99.90;;;;;;5531223;26;20614;-76
2024/04/22 01:40:54;;;;;;;1.23;0.60;;;4.80;99.90;;;;;;5531278;26;20520;-76
2024/04/22 01:43:20;;;;;;;0.90;0.30;;;4.90;99.90;;;;;;5530758;26;20792;-75
2024/04/22 01:45:49;;;;;;;0.93;0.50;;;4.90;99.90;;;;;;5530833;26;20533;-76
2024/04/22 01:48:15;;;;;;;0.77;0.43;;;4.90;99.90;;;;;;5529526;26;20505;-75
2024/04/22 01:50:44;;;;;;;0.90;0.50;;;5.00;99.90;;;;;;5530629;26;20525;-76
2024/04/22 01:53:10;;;;;;;1.00;0.50;;;5.00;99.90;;;;;;5530310;26;20516;-75
2024/04/22 01:55:41;;;;;;;1.43;0.40;;;5.00;99.90;;;;;;5528923;26;20448;-76
2024/04/22 01:58:10;;;;;;;0.93;0.47;;;5.00;99.90;;;;;;5530737;26;20580;-76
2024/04/22 02:00:42;;;;;;;1.60;0.53;;;5.00;99.90;;;;;;5530940;26;20448;-76
2024/04/22 02:03:08;;;;;;;1.27;0.50;;;4.80;99.90;;;;;;5497364;26;21025;-76
2024/04/22 02:05:40;;;;;;;0.53;0.33;;;4.80;99.90;;;;;;5530694;26;20571;-76
2024/04/22 02:08:07;;;;;;;0.70;0.40;;;4.70;99.90;;;;;;5530601;26;20493;-76
2024/04/22 02:10:35;;;;;;;0.80;0.50;;;4.80;99.90;;;;;;5530578;26;20436;-75
2024/04/22 02:13:01;;;;;;;1.13;0.30;;;4.80;99.90;;;;;;5531110;26;20456;-75
2024/04/22 02:15:33;;;;;;;1.07;0.60;;;4.90;99.90;;;;;;5530587;26;20519;-75
2024/04/22 02:18:00;;;;;;;2.70;0.50;;;4.90;99.90;;;;;;5530966;26;20929;-76
2024/04/22 02:20:29;;;;;;;0.87;0.60;;;4.90;99.90;;;;;;5531348;26;20453;-76
2024/04/22 02:22:55;;;;;;;1.00;0.50;;;4.90;99.90;;;;;;5531573;26;20508;-75
2024/04/22 02:25:24;;;;;;;1.10;0.40;;;4.90;99.90;;;;;;5530255;26;20569;-75
2024/04/22 02:27:52;;;;;;;2.37;0.53;;;4.90;99.90;;;;;;5531067;26;20452;-75
2024/04/22 02:30:21;;;;;;;0.70;0.40;;;4.80;99.90;;;;;;5529596;26;20776;-75
2024/04/22 02:32:50;;;;;;;0.50;0.37;;;4.80;99.90;;;;;;5530634;26;20808;-76
2024/04/22 02:35:18;;;;;;;0.73;0.40;;;4.80;99.90;;;;;;5530328;26;20757;-76
2024/04/22 02:37:44;;;;;;;1.03;0.40;;;4.80;99.90;;;;;;5530800;26;20667;-76
2024/04/22 02:40:13;;;;;;;1.17;0.67;;;4.90;99.90;;;;;;5530570;26;20597;-76
2024/04/22 02:42:39;;;;;;;0.87;0.40;;;4.90;99.90;;;;;;5529710;26;20494;-76
2024/04/22 02:45:08;;;;;;;1.10;0.40;;;4.90;99.90;;;;;;5529087;26;20501;-76
2024/04/22 02:47:34;;;;;;;0.80;0.60;;;4.90;99.90;;;;;;5529613;26;20568;-76
2024/04/22 02:50:07;;;;;;;0.80;0.50;;;4.90;99.90;;;;;;5528315;26;20493;-75
2024/04/22 02:52:33;;;;;;;0.57;0.33;;;4.90;99.90;;;;;;5529519;26;20487;-76
2024/04/22 02:55:02;;;;;;;0.63;0.40;;;4.80;99.90;;;;;;5526622;26;20513;-76
2024/04/22 02:57:28;;;;;;;1.40;0.53;;;4.90;99.90;;;;;;5526944;26;20515;-76
2024/04/22 02:59:56;;;;;;;0.73;0.37;;;5.00;99.90;;;;;;5528067;26;20501;-76
2024/04/22 03:02:23;;;;;;;0.67;0.40;;;5.00;99.90;;;;;;5528297;26;20565;-76
2024/04/22 03:04:52;;;;;;;5.43;0.47;;;4.90;99.90;;;;;;5528755;26;20544;-76
2024/04/22 03:07:21;;;;;;;1.23;0.50;;;5.00;99.90;;;;;;5528037;26;20514;-76
2024/04/22 03:09:49;;;;;;;0.77;0.40;;;4.90;99.90;;;;;;5530025;26;20465;-74
2024/04/22 03:12:15;;;;;;;0.70;0.30;;;4.90;99.90;;;;;;5498085;26;20503;-75
2024/04/22 03:14:47;;;;;;;0.80;0.47;;;4.70;99.90;;;;;;5529359;26;20465;-75
2024/04/22 03:17:13;;;;;;;0.57;0.40;;;4.70;99.90;;;;;;5529402;26;20910;-75
2024/04/22 03:19:42;;;;;;;2.90;0.47;;;4.70;99.90;;;;;;5530696;26;20433;-75
2024/04/22 03:22:09;;;;;;;1.43;0.30;;;4.70;99.90;;;;;;5498258;26;20725;-75
2024/04/22 03:24:40;;;;;;;1.63;0.50;;;4.80;99.90;;;;;;5530822;26;20544;-76
2024/04/22 03:27:09;;;;;;;1.00;0.40;;;4.90;99.90;;;;;;5530816;26;20512;-78
2024/04/22 03:29:38;;;;;;;0.50;0.30;;;4.80;99.90;;;;;;5529311;26;20536;-75
2024/04/22 03:32:05;;;;;;;0.90;0.40;;;4.80;99.90;;;;;;5528802;26;20496;-75
2024/04/22 03:34:36;;;;;;;1.03;0.40;;;4.70;99.90;;;;;;5529953;26;20437;-76
2024/04/22 03:37:05;;;;;;;2.00;0.40;;;4.60;99.90;;;;;;5530188;26;20762;-75
2024/04/22 03:39:33;;;;;;;0.60;0.30;;;4.70;99.90;;;;;;5529806;26;20624;-74
2024/04/22 03:42:02;;;;;;;0.80;0.40;;;4.70;99.90;;;;;;5529197;26;20516;-75
2024/04/22 03:44:31;;;;;;;0.73;0.40;;;4.60;99.90;;;;;;5529945;26;20512;-76
2024/04/22 03:49:55;;;;;;;1.70;0.43;;;4.40;99.90;;;;;;5528879;26;20546;-75
2024/04/22 03:52:23;;;;;;;0.80;0.50;;;4.40;99.90;;;;;;5526372;26;20453;-75
2024/04/22 03:54:52;;;;;;;3.23;0.50;;;4.40;99.90;;;;;;5526685;26;21143;-75
2024/04/22 03:57:23;;;;;;;2.67;0.50;;;4.40;99.90;;;;;;5525993;26;20522;-76
2024/04/22 03:59:52;;;;;;;0.67;0.40;;;4.50;99.90;;;;;;5526788;26;20549;-76
2024/04/22 04:02:18;;;;;;;2.50;0.40;;;4.40;99.90;;;;;;5526574;26;20569;-74
2024/04/22 04:04:47;;;;;;;1.73;0.60;;;4.40;99.90;;;;;;5528403;26;20490;-76
2024/04/22 04:07:15;;;;;;;0.50;0.40;;;4.30;99.90;;;;;;5528353;26;20986;-75
2024/04/22 04:09:44;;;;;;;1.10;0.53;;;4.20;99.90;;;;;;5529741;26;20469;-76
2024/04/22 04:12:10;;;;;;;0.77;0.40;;;4.20;99.90;;;;;;5530740;25;20505;-75
2024/04/22 04:14:42;;;;;;;0.63;0.40;;;4.20;99.90;;;;;;5530902;25;20509;-75
2024/04/22 04:17:08;;;;;;;0.70;0.50;;;4.30;99.90;;;;;;5530838;26;20562;-75
2024/04/22 04:19:37;;;;;;;0.90;0.50;;;4.30;99.90;;;;;;5529638;25;20441;-75
2024/04/22 04:22:03;;;;;;;0.77;0.50;;;4.30;99.90;;;;;;5530467;25;20764;-75
2024/04/22 04:24:32;;;;;;;1.07;0.63;;;4.30;99.90;;;;;;5529546;26;20732;-76
2024/04/22 04:26:58;;;;;;;1.20;0.40;;;4.30;99.90;;;;;;5531394;26;20460;-77
2024/04/22 04:29:27;;;;;;;1.13;0.40;;;4.40;99.90;;;;;;5531337;26;20495;-75
2024/04/22 04:31:55;;;;;;;2.53;0.50;;;4.30;99.90;;;;;;5531147;26;20580;-76
2024/04/22 04:34:24;;;;;;;0.90;0.50;;;4.10;99.90;;;;;;5500669;26;20529;-75
2024/04/22 04:36:50;;;;;;;0.70;0.50;;;4.00;99.90;;;;;;5526867;26;20468;-76
2024/04/22 04:39:19;;;;;;;0.90;0.50;;;4.10;99.90;;;;;;5516898;26;20533;-75
2024/04/22 04:41:45;;;;;;;0.90;0.50;;;4.10;99.90;;;;;;5490961;26;20450;-76
2024/04/22 04:44:14;;;;;;;0.80;0.47;;;4.10;99.90;;;;;;5491368;26;20454;-76
2024/04/22 04:46:44;;;;;;;0.87;0.50;;;4.00;99.90;;;;;;5490478;26;20492;-76
2024/04/22 04:49:15;;;;;;;3.47;0.50;;;4.10;99.90;;;;;;5491322;26;20479;-75
2024/04/22 04:51:41;;;;;;;0.37;0.23;;;4.10;99.90;;;;;;5511813;26;20572;-76
2024/04/22 04:54:10;;;;;;;1.33;0.50;;;4.20;99.90;;;;;;5526403;26;20460;-76
2024/04/22 04:56:36;;;;;;;2.13;0.80;;;4.30;99.90;;;;;;5524278;26;20880;-76
2024/04/22 04:59:05;;;;;;;3.50;0.40;;;4.40;99.90;;;;;;5524947;26;20429;-75
2024/04/22 05:01:32;;;;;;;0.93;0.50;;;4.50;99.90;;;;;;5527237;26;20437;-77
2024/04/22 05:04:02;;;;;;;1.77;1.10;;;4.50;99.90;;;;;;5526104;26;20502;-76
2024/04/22 05:06:31;;;;;;;0.90;0.37;;;4.80;99.90;;;;;;5527207;26;20498;-77
2024/04/22 05:09:00;;;;;;;1.07;0.50;;;4.80;99.90;;;;;;5527272;26;20503;-76
2024/04/22 05:11:30;;;;;;;1.30;0.40;;;4.70;99.90;;;;;;5528302;26;20445;-76
2024/04/22 05:14:00;;;;;;;0.60;0.30;;;4.50;99.90;;;;;;5496041;26;20436;-77
2024/04/22 05:16:26;;;;;;;1.53;0.40;;;4.60;99.90;;;;;;5528934;26;20453;-76
2024/04/22 05:18:55;;;;;;;0.80;0.57;;;4.50;99.90;;;;;;5528572;26;20465;-76
2024/04/22 05:21:23;;;;;;;1.33;0.40;;;4.70;99.90;;;;;;5528154;26;20495;-76
2024/04/22 05:23:55;;;;;;;0.60;0.40;;;4.90;99.90;;;;;;5528084;26;20999;-77
2024/04/22 05:26:21;;;;;;;0.60;0.30;;;5.00;99.90;;;;;;5506227;26;20559;-76
2024/04/22 05:28:50;;;;;;;0.87;0.40;;;5.00;99.90;;;;;;5492215;26;20887;-73
2024/04/22 05:31:16;;;;;;;1.10;0.40;;;4.90;99.90;;;;;;5493620;26;20501;-75
2024/04/22 05:36:29;;;;;;;1.17;0.50;;;5.10;99.90;;;;;;5535034;26;20929;-76
2024/04/22 05:39:01;;;;;;;2.00;0.50;;;5.30;99.90;;;;;;5534677;26;20852;-77
2024/04/22 05:41:29;;;;;;;0.97;0.40;;;5.20;99.90;;;;;;5531034;26;20976;-74
2024/04/22 05:43:58;;;;;;;0.60;0.50;;;5.00;99.90;;;;;;5527752;26;20538;-74
2024/04/22 05:46:27;;;;;;;2.00;0.50;;;5.00;99.90;;;;;;5525986;26;20460;-76
2024/04/22 05:48:55;;;;;;;0.97;0.40;;;4.80;99.90;;;;;;5526424;26;20495;-75
2024/04/22 05:51:26;;;;;;;0.77;0.40;;;4.50;99.90;;;;;;5528927;26;20586;-75
2024/04/22 05:53:55;;;;;;;0.53;0.30;;;4.30;99.90;;;;;;5497302;26;21199;-76
2024/04/22 05:56:24;;;;;;;1.00;0.40;;;4.50;99.90;;;;;;5521957;26;20507;-75
2024/04/22 05:58:53;;;;;;;0.70;0.30;;;4.80;99.90;;;;;;5496349;26;20931;-75
2024/04/22 06:01:22;;;;;;;0.80;0.40;;;4.60;99.90;;;;;;5492030;26;20465;-75
2024/04/22 06:03:48;;;;;;;1.30;0.40;;;4.90;99.90;;;;;;5527653;26;20583;-76
2024/04/22 06:06:16;;;;;;;0.70;0.30;;;4.80;99.90;;;;;;5528244;26;20452;-76
2024/04/22 06:08:47;;;;;;;0.80;0.40;;;4.60;99.90;;;;;;5526778;26;20578;-76
2024/04/22 06:11:16;;;;;;;0.60;0.30;;;4.90;99.90;;;;;;5522861;26;20523;-76
2024/04/22 06:13:57;;;;;;;0.80;0.50;;;5.10;99.90;;;;;;5522077;26;20604;-74
2024/04/22 06:16:27;;;;;;;0.67;0.40;;;5.40;99.90;;;;;;5525924;26;20582;-76
2024/04/22 06:18:53;;;;;;;0.70;0.30;;;5.30;99.90;;;;;;5514746;25;20465;-76
2024/04/22 06:21:22;;;;;;;0.50;0.30;;;5.30;99.90;;;;;;5516918;25;20830;-77
2024/04/22 06:23:49;;;;;;;0.70;0.33;;;5.30;99.90;;;;;;5497054;26;20798;-77
2024/04/22 06:26:18;;;;;;;0.60;0.40;;;5.60;99.90;;;;;;5504160;25;20527;-77
2024/04/22 06:28:50;;;;;;;0.60;0.40;;;5.80;99.90;;;;;;5482639;26;20473;-76
2024/04/22 06:31:19;;;;;;;0.80;0.53;;;5.60;99.90;;;;;;5487720;25;20525;-77
2024/04/22 06:33:48;;;;;;;0.70;0.40;;;5.30;99.90;;;;;;5495944;25;20480;-78
2024/04/22 06:36:17;;;;;;;1.10;0.40;;;5.30;99.90;;;;;;5495058;25;20502;-77
2024/04/22 06:38:45;;;;;;;2.47;0.40;;;5.20;99.90;;;;;;5492297;26;20458;-76
2024/04/22 06:41:14;;;;;;;2.57;0.40;;;5.10;99.90;;;;;;5497306;25;20476;-77
2024/04/22 06:43:40;;;;;;;2.20;0.40;;;5.00;99.90;;;;;;5509588;26;20461;-77
2024/04/22 06:46:12;;;;;;;1.17;0.40;;;5.20;99.90;;;;;;5495570;26;20515;-78
2024/04/22 06:48:38;;;;;;;1.80;0.50;;;5.50;99.90;;;;;;5493717;26;20514;-75
2024/04/22 06:51:07;;;;;;;0.77;0.37;;;5.70;99.90;;;;;;5494643;25;20955;-74
2024/04/22 06:53:33;;;;;;;0.50;0.30;;;5.90;99.90;;;;;;5491940;25;20457;-73
2024/04/22 06:56:06;;;;;;;0.70;0.40;;;5.90;99.90;;;;;;5457475;25;20577;-77
2024/04/22 06:58:34;;;;;;;1.43;0.60;;;6.20;99.90;;;;;;5492408;26;21339;-75
2024/04/22 07:01:03;;;;;;;0.77;0.40;;;6.10;99.90;;;;;;5486683;25;20515;-74
2024/04/22 07:03:31;;;;;;;1.10;0.47;;;6.30;99.90;;;;;;5488713;25;20575;-75
2024/04/22 07:06:00;;;;;;;0.77;0.40;;;6.40;99.90;;;;;;5490132;25;20465;-77
2024/04/22 07:08:29;;;;;;;0.93;0.40;;;6.60;99.90;;;;;;5503260;26;21096;-75
2024/04/22 07:10:58;;;;;;;0.87;0.40;;;6.40;99.90;;;;;;5491634;25;20507;-76
2024/04/22 07:13:32;;;;;;;2.30;0.70;;;6.10;99.90;;;;;;5492131;25;20608;-76
2024/04/22 07:16:00;;;;;;;0.87;0.50;;;5.90;99.90;;;;;;5512632;25;20627;-76
2024/04/22 07:18:31;;;;;;;0.80;0.40;;;5.90;99.90;;;;;;5519510;26;21058;-76
2024/04/22 07:21:01;;;;;;;0.87;0.43;;;5.90;99.90;;;;;;5512553;26;20940;-76
2024/04/22 07:23:27;;;;;;;0.60;0.40;;;5.90;99.90;;;;;;5484399;26;20967;-75
2024/04/22 07:25:56;;;;;;;0.53;0.30;;;6.10;99.90;;;;;;5501074;26;20755;-75
2024/04/22 07:28:23;;;;;;;1.25;0.60;;;5.70;99.90;;;;;;5488776;25;20443;-75
2024/04/22 07:30:52;;;;;;;0.70;0.30;;;6.00;99.90;;;;;;5491948;25;20266;-76
2024/04/22 07:33:20;;;;;;;0.60;0.30;;;5.90;99.90;;;;;;5512190;25;20484;-76
2024/04/22 07:35:57;;;;;;;1.00;0.50;;;5.90;99.90;;;;;;5503997;25;20482;-76
2024/04/22 07:38:29;;;;;;;0.87;0.40;;;6.00;99.90;;;;;;5511468;25;20483;-76
2024/04/22 07:40:59;;;;;;;0.80;0.43;;;6.00;99.90;;;;;;5496870;25;20501;-76
2024/04/22 07:43:25;;;;;;;0.80;0.50;;;6.10;99.90;;;;;;5502509;25;20854;-76
2024/04/22 07:45:54;;;;;;;0.43;0.23;;;6.20;99.90;;;;;;5501572;25;20550;-76
2024/04/22 07:48:20;;;;;;;0.93;0.40;;;6.00;99.90;;;;;;5516270;25;20379;-75
2024/04/22 07:50:51;;;;;;;0.97;0.50;;;6.00;99.90;;;;;;5501161;25;20324;-73
2024/04/22 07:53:18;;;;;;;0.50;0.30;;;5.90;99.90;;;;;;5513041;25;20476;-73
2024/04/22 07:55:47;;;;;;;0.70;0.40;;;5.90;99.90;;;;;;5516568;25;20476;-73
2024/04/22 07:58:14;;;;;;;1.10;0.40;;;5.90;99.90;;;;;;5513789;26;20574;-73
2024/04/22 08:00:44;;;;;;;0.60;0.30;;;6.00;99.90;;;;;;5519625;26;20562;-72
2024/04/22 08:03:11;;;;;;;0.57;0.27;;;6.20;99.90;;;;;;5511742;26;20569;-73
2024/04/22 08:05:40;;;;;;;0.60;0.40;;;6.30;99.90;;;;;;5522218;25;20570;-73
2024/04/22 08:08:10;;;;;;;0.77;0.30;;;6.40;99.90;;;;;;5522185;26;21137;-74
2024/04/22 08:10:39;;;;;;;0.40;0.20;;;6.60;99.90;;;;;;5520424;26;20465;-73
2024/04/22 08:13:05;;;;;;;1.03;0.30;;;7.00;99.90;;;;;;5520984;26;20532;-73
2024/04/22 08:15:35;;;;;;;0.43;0.20;;;7.20;99.90;;;;;;5522271;26;20472;-74
2024/04/22 08:18:02;;;;;;;1.93;0.50;;;7.20;99.90;;;;;;5517626;26;20503;-73
2024/04/22 08:20:31;;;;;;;1.50;0.40;;;7.30;99.90;;;;;;5524495;26;20445;-74
2024/04/22 08:22:59;;;;;;;0.70;0.40;;;7.10;99.90;;;;;;5523112;26;20460;-73
2024/04/22 08:25:31;;;;;;;1.80;0.30;;;7.20;99.90;;;;;;5523382;26;20512;-72
2024/04/22 08:27:57;;;;;;;0.50;0.30;;;7.10;99.90;;;;;;5523968;26;20456;-73
2024/04/22 08:30:27;;;;;;;0.60;0.30;;;7.10;99.90;;;;;;5523444;26;21053;-74
2024/04/22 08:32:54;;;;;;;0.83;0.30;;;7.00;99.90;;;;;;5523671;26;20701;-75
2024/04/22 08:35:23;;;;;;;0.50;0.20;;;6.90;99.90;;;;;;5523709;26;20453;-75
2024/04/22 08:37:49;;;;;;;0.63;0.40;;;7.00;99.90;;;;;;5521529;26;20576;-74
2024/04/22 08:40:18;;;;;;;0.53;0.30;;;7.10;99.90;;;;;;5523308;26;20516;-75
2024/04/22 08:42:51;;;;;;;1.97;0.53;;;7.20;99.90;;;;;;5488462;26;20589;-75
2024/04/22 08:45:22;;;;;;;0.63;0.30;;;7.30;99.90;;;;;;5518393;26;20436;-74
2024/04/22 08:47:49;;;;;;;0.70;0.30;;;7.40;99.90;;;;;;5524134;26;20497;-74
2024/04/22 08:50:17;;;;;;;0.70;0.30;;;7.30;99.90;;;;;;5522266;26;20878;-73
2024/04/22 08:52:47;;;;;;;0.60;0.43;;;7.30;99.90;;;;;;5523806;26;20515;-74
2024/04/22 08:55:16;;;;;;;0.60;0.40;;;7.50;99.90;;;;;;5522254;26;20524;-74
2024/04/22 08:57:42;;;;;;;0.90;0.30;;;7.60;99.90;;;;;;5521488;26;20504;-74
2024/04/22 09:00:14;;;;;;;0.87;0.30;;;7.50;99.90;;;;;;5522260;26;20449;-74
2024/04/22 09:02:41;;;;;;;0.60;0.30;;;7.60;99.90;;;;;;5523920;26;20457;-75
2024/04/22 09:05:10;;;;;;;0.87;0.40;;;7.90;99.90;;;;;;5524243;26;20560;-74
2024/04/22 09:07:36;;;;;;;0.47;0.30;;;8.00;99.90;;;;;;5526781;26;20453;-74
2024/04/22 09:10:06;;;;;;;0.80;0.30;;;8.20;99.90;;;;;;5525333;26;20464;-74
2024/04/22 09:12:40;;;;;;;0.90;0.40;;;8.40;99.90;;;;;;5528266;26;20484;-75
2024/04/22 09:15:14;;;;;;;0.60;0.30;;;8.60;99.90;;;;;;5495244;25;20457;-74
2024/04/22 09:17:48;;;;;;;0.50;0.40;;;8.60;99.90;;;;;;5530134;26;20456;-74
2024/04/22 09:20:20;;;;;;;0.50;0.30;;;8.40;99.90;;;;;;5533562;25;20456;-75
2024/04/22 09:22:47;;;;;;;1.00;0.40;;;8.30;99.90;;;;;;5528673;26;20741;-75
2024/04/22 09:25:20;;;;;;;0.50;0.20;;;8.40;99.90;;;;;;5512222;26;20528;-74
2024/04/22 09:27:52;;;;;;;0.50;0.20;;;8.40;99.90;;;;;;5526680;26;20464;-74
2024/04/22 09:30:23;;;;;;;0.77;0.30;;;8.40;99.90;;;;;;5522713;25;20768;-73
2024/04/22 09:32:53;;;;;;;0.50;0.30;;;8.40;99.90;;;;;;5517254;26;20465;-73
2024/04/22 09:35:23;;;;;;;1.00;0.40;;;8.50;99.90;;;;;;5529020;25;21008;-74
2024/04/22 09:37:51;;;;;;;0.50;0.30;;;8.40;99.90;;;;;;5517888;25;20472;-73
2024/04/22 09:40:21;;;;;;;0.70;0.40;;;8.40;99.90;;;;;;5527484;25;20629;-74
2024/04/22 09:42:48;;;;;;;0.97;0.40;;;8.40;99.90;;;;;;5517311;25;20567;-75
2024/04/22 09:45:20;;;;;;;0.73;0.30;;;8.10;99.90;;;;;;5527285;26;20531;-74
2024/04/22 09:47:56;;;;;;;1.00;0.30;;;8.20;99.90;;;;;;5510456;25;20464;-75
2024/04/22 09:50:28;;;;;;;0.50;0.30;;;8.30;99.90;;;;;;5508018;25;20495;-74
2024/04/22 09:52:55;;;;;;;0.53;0.30;;;8.50;99.90;;;;;;5527296;26;20774;-75
2024/04/22 09:55:24;;;;;;;0.63;0.30;;;8.50;99.90;;;;;;5523134;25;20488;-74
2024/04/22 09:57:53;;;;;;;0.63;0.20;;;8.50;99.90;;;;;;5515680;25;20617;-76
2024/04/22 10:00:22;;;;;;;1.00;0.40;;;8.50;99.90;;;;;;5521523;26;20775;-76
2024/04/22 10:02:50;;;;;;;1.10;0.40;;;8.40;99.90;;;;;;5510272;25;21228;-74
2024/04/22 10:05:25;;;;;;;0.70;0.40;;;8.20;99.90;;;;;;5490461;25;20471;-75
2024/04/22 10:07:51;;;;;;;0.40;0.30;;;8.20;99.90;;;;;;5529648;25;20460;-74
2024/04/22 10:10:21;;;;;;;0.73;0.57;;;8.50;99.90;;;;;;5527925;25;21120;-73
2024/04/22 10:12:47;;;;;;;0.67;0.30;;;8.60;99.90;;;;;;5530585;25;20453;-74
2024/04/22 10:15:17;;;;;;;0.53;0.40;;;8.50;99.90;;;;;;5531062;26;20456;-74
2024/04/22 10:17:44;;;;;;;1.03;0.47;;;8.80;99.90;;;;;;5531890;25;20515;-75
2024/04/22 10:20:16;;;;;;;0.70;0.40;;;9.20;99.90;;;;;;5527565;25;20480;-75
2024/04/22 10:22:45;;;;;;;0.40;0.30;;;9.30;99.90;;;;;;5533009;25;20678;-75
2024/04/22 10:25:23;;;;;;;0.67;0.30;;;9.30;99.60;;;;;;5526696;25;20508;-74
2024/04/22 10:27:50;;;;;;;1.43;0.40;;;9.00;99.90;;;;;;5531328;26;20910;-74
2024/04/22 10:30:21;;;;;;;1.40;0.30;;;9.10;99.90;;;;;;5532180;26;21001;-74
2024/04/22 10:32:47;;;;;;;1.37;0.40;;;9.30;98.50;;;;;;5533179;25;20796;-73
2024/04/22 10:35:16;;;;;;;0.70;0.30;;;9.30;97.20;;;;;;5530177;26;20460;-74
2024/04/22 10:37:48;;;;;;;0.70;0.40;;;9.60;96.30;;;;;;5496181;26;20476;-73
2024/04/22 10:40:20;;;;;;;2.50;0.90;;;10.30;95.40;;;;;;5529534;26;20452;-74
2024/04/22 10:42:46;;;;;;;0.60;0.30;;;10.80;92.80;;;;;;5534718;26;20500;-73
2024/04/22 10:45:16;;;;;;;0.60;0.40;;;10.90;89.80;;;;;;5530063;26;20465;-73
2024/04/22 10:47:43;;;;;;;1.27;0.30;;;10.60;87.90;;;;;;5527755;26;20476;-73
2024/04/22 10:50:16;;;;;;;0.50;0.20;;;10.30;86.60;;;;;;5524910;26;21232;-73
2024/04/22 10:52:45;;;;;;;0.60;0.27;;;10.40;90.10;;;;;;5526941;26;20460;-73
2024/04/22 10:55:14;;;;;;;0.40;0.20;;;10.40;86.80;;;;;;5529750;26;20452;-73
2024/04/22 10:57:41;;;;;;;0.67;0.40;;;10.30;85.90;;;;;;5526067;26;20838;-75
2024/04/22 11:00:10;;;;;;;0.90;0.30;;;10.40;85.70;;;;;;5523590;26;20457;-73
2024/04/22 11:02:40;;;;;;;0.90;0.40;;;10.20;84.40;;;;;;5522954;26;20840;-74
2024/04/22 11:05:11;;;;;;;0.87;0.40;;;9.90;85.70;;;;;;5527960;26;20461;-74
2024/04/22 11:07:37;;;;;;;0.80;0.40;;;10.10;85.10;;;;;;5527572;26;20453;-74
2024/04/22 11:10:09;;;;;;;0.80;0.60;;;10.30;83.60;;;;;;5522744;26;20433;-74
2024/04/22 11:12:36;;;;;;;0.40;0.30;;;10.40;84.70;;;;;;5523119;26;21174;-73
2024/04/22 11:15:06;;;;;;;0.53;0.30;;;10.10;82.10;;;;;;5524949;26;20727;-73
2024/04/22 11:17:33;;;;;;;0.50;0.40;;;10.00;84.10;;;;;;5464118;26;20511;-74
2024/04/22 11:20:18;;;;;;;0.60;0.30;;;10.00;79.60;;;;;;5509357;26;21232;-74
2024/04/22 11:22:44;;;;;;;1.20;0.33;;;10.10;78.80;;;;;;5495219;26;20471;-74
2024/04/22 11:25:16;;;;;;;0.80;0.40;;;10.10;75.90;;;;;;5523371;26;20448;-74
2024/04/22 11:27:44;;;;;;;0.83;0.33;;;10.00;78.80;;;;;;5526041;26;20519;-74
2024/04/22 11:30:11;;;;;;;0.70;0.30;;;10.50;81.00;;;;;;5523856;26;20693;-74
2024/04/22 11:32:40;;;;;;;0.43;0.20;;;10.90;79.70;;;;;;5526105;26;20515;-73
2024/04/22 11:35:10;;;;;;;0.50;0.30;;;11.10;72.50;;;;;;5527143;26;20464;-73
2024/04/22 11:37:38;;;;;;;0.77;0.30;;;11.10;72.50;;;;;;5521585;26;20484;-74
2024/04/22 11:40:08;;;;;;;0.70;0.30;;;11.60;74.00;;;;;;5488235;26;20442;-74
2024/04/22 11:42:40;;;;;;;0.60;0.30;;;11.80;66.40;;;;;;5457663;26;20855;-74
2024/04/22 11:45:07;;;;;;;0.43;0.30;;;11.90;67.10;;;;;;5489861;26;20545;-74
2024/04/22 11:47:36;;;;;;;1.87;0.30;;;11.70;68.90;;;;;;5490727;26;20592;-74
2024/04/22 11:50:02;;;;;;;0.50;0.30;;;11.70;67.80;;;;;;5489470;25;20528;-72
2024/04/22 11:52:33;;;;;;;0.70;0.30;;;11.80;67.00;;;;;;5539248;25;20472;-74
2024/04/22 11:54:59;;;;;;;0.60;0.30;;;11.70;69.60;;;;;;5515449;25;20452;-73
2024/04/22 11:57:28;;;;;;;0.47;0.27;;;11.30;68.00;;;;;;5510944;26;20563;-74
2024/04/22 11:59:57;;;;;;;0.60;0.30;;;11.40;72.50;;;;;;5522149;26;20453;-73
2024/04/22 12:02:26;;;;;;;1.10;0.40;;;11.70;72.60;;;;;;5519689;26;20977;-74
2024/04/22 12:04:54;;;;;;;0.40;0.30;;;11.80;72.50;;;;;;5513730;26;20888;-74
2024/04/22 12:07:23;;;;;;;0.73;0.30;;;12.60;69.80;;;;;;5502647;25;20471;-73
2024/04/22 12:09:49;;;;;;;0.40;0.27;;;12.90;66.40;;;;;;5535968;25;20448;-74
2024/04/22 12:12:17;;;;;;;0.70;0.30;;;13.00;65.40;;;;;;5497657;26;20476;-74
2024/04/22 12:14:45;;;;;;;0.40;0.20;;;12.70;62.50;;;;;;5523519;26;20707;-74
2024/04/22 12:17:16;;;;;;;0.50;0.20;;;12.20;66.60;;;;;;5515640;26;20487;-73
2024/04/22 12:19:42;;;;;;;0.70;0.40;;;12.00;65.50;;;;;;5524662;26;20464;-74
2024/04/22 12:22:11;;;;;;;0.60;0.37;;;11.90;65.80;;;;;;5511166;25;20461;-72
2024/04/22 12:24:37;;;;;;;0.57;0.27;;;11.80;65.80;;;;;;5514959;26;20762;-72
2024/04/22 12:27:09;;;;;;;0.60;0.30;;;11.30;65.10;;;;;;5500174;26;20461;-74
2024/04/22 12:29:35;;;;;;;0.50;0.30;;;11.30;67.40;;;;;;5522033;26;20445;-74
2024/04/22 12:32:08;;;;;;;0.60;0.30;;;11.30;63.10;;;;;;5502300;26;20582;-73
2024/04/22 12:34:36;;;;;;;0.50;0.20;;;10.90;61.10;;;;;;5486360;26;20450;-74
2024/04/22 12:37:06;;;;;;;0.60;0.20;;;10.90;63.60;;;;;;5519822;26;20453;-74
2024/04/22 12:39:35;;;;;;;0.50;0.30;;;11.20;64.00;;;;;;5526633;25;20428;-74
2024/04/22 12:42:04;;;;;;;0.50;0.30;;;11.50;63.70;;;;;;5496256;26;20592;-74
2024/04/22 12:44:30;;;;;;;0.90;0.30;;;11.80;62.60;;;;;;5491371;26;20570;-73
2024/04/22 12:52:32;;;;;;;0.70;0.30;;;12.40;65.30;;;;;;5496007;26;20492;-72
2024/04/22 12:55:00;;;;;;;0.83;0.40;;;12.90;65.80;;;;;;5502474;26;20535;-72
2024/04/22 12:57:29;;;;;;;0.80;0.40;;;13.30;66.80;;;;;;5494493;26;21224;-74
2024/04/22 13:00:02;;;;;;;0.83;0.40;;;13.40;64.90;;;;;;5495372;26;20772;-72
2024/04/22 13:02:31;;;;;;;0.70;0.40;;;13.50;64.10;;;;;;5495681;26;20454;-74
2024/04/22 13:05:03;;;;;;;0.83;0.30;;;13.20;65.20;;;;;;5504636;26;20471;-73
2024/04/22 13:07:32;;;;;;;0.83;0.30;;;13.00;63.10;;;;;;5529281;26;20444;-74
2024/04/22 13:10:01;;;;;;;0.80;0.30;;;12.70;62.30;;;;;;5516840;26;20848;-72
2024/04/22 13:12:31;;;;;;;0.50;0.20;;;12.90;62.90;;;;;;5494259;26;20609;-75
2024/04/22 13:15:00;;;;;;;0.40;0.20;;;13.20;62.50;;;;;;5509066;26;20567;-73